sensor_id;sensor_type;location;lat;lon;timestamp;pressure;altitude;pressure_sealevel;temperature;humidity
14818;BME280;7500;57.698;11.986;2023-02-18T00:01:59;99867.88;;;9.27;100.00
14818;BME280;7500;57.698;11.986;2023-02-18T00:04:26;99879.19;;;9.15;100.00
14818;BME280;7500;57.698;11.986;2023-02-18T00:06:52;99888.41;;;9.36;100.00
14818;BME280;7500;57.698;11.986;2023-02-18T00:09:19;99886.53;;;9.38;100.00
14818;BME280;7500;57.698;11.986;2023-02-18T00:11:48;99895.75;;;9.31;100.00
14818;BME280;7500;57.698;11.986;2023-02-18T00:14:15;99901.88;;;9.31;100.00
14818;BME280;7500;57.698;11.986;2023-02-18T00:16:43;99920.56;;;9.27;100.00
14818;BME280;7500;57.698;11.986;2023-02-18T00:19:12;99920.56;;;9.27;100.00
14818;BME280;7500;57.698;11.986;2023-02-18T00:21:39;99927.72;;;9.25;100.00
14818;BME280;7500;57.698;11.986;2023-02-18T00:24:07;99928.09;;;9.03;100.00
14818;BME280;7500;57.698;11.986;2023-02-18T00:26:35;99915.31;;;8.98;100.00
14818;BME280;7500;57.698;11.986;2023-02-18T00:29:03;99945.00;;;9.15;100.00
14818;BME280;7500;57.698;11.986;2023-02-18T00:31:32;99940.38;;;8.89;100.00
14818;BME280;7500;57.698;11.986;2023-02-18T00:33:59;99970.91;;;9.07;100.00
14818;BME280;7500;57.698;11.986;2023-02-18T00:36:27;99971.84;;;9.06;100.00
14818;BME280;7500;57.698;11.986;2023-02-18T00:38:58;99976.78;;;9.12;100.00
14818;BME280;7500;57.698;11.986;2023-02-18T00:41:27;99984.84;;;9.09;100.00
14818;BME280;7500;57.698;11.986;2023-02-18T00:43:54;99995.19;;;9.12;100.00
14818;BME280;7500;57.698;11.986;2023-02-18T00:46:23;100004.38;;;9.05;100.00
14818;BME280;7500;57.698;11.986;2023-02-18T00:48:50;99997.59;;;9.01;100.00
14818;BME280;7500;57.698;11.986;2023-02-18T00:51:17;99998.25;;;9.04;100.00
14818;BME280;7500;57.698;11.986;2023-02-18T00:53:44;100013.91;;;8.92;100.00
14818;BME280;7500;57.698;11.986;2023-02-18T00:56:13;100008.78;;;8.89;100.00
14818;BME280;7500;57.698;11.986;2023-02-18T00:58:40;100029.34;;;8.83;100.00
14818;BME280;7500;57.698;11.986;2023-02-18T01:01:08;100028.69;;;8.79;100.00
14818;BME280;7500;57.698;11.986;2023-02-18T01:03:38;100042.34;;;8.86;100.00
14818;BME280;7500;57.698;11.986;2023-02-18T01:06:06;100040.22;;;8.61;100.00
14818;BME280;7500;57.698;11.986;2023-02-18T01:08:34;100044.72;;;8.75;100.00
14818;BME280;7500;57.698;11.986;2023-02-18T01:11:01;100042.41;;;8.53;100.00
14818;BME280;7500;57.698;11.986;2023-02-18T01:13:28;100023.03;;;8.39;100.00
14818;BME280;7500;57.698;11.986;2023-02-18T01:15:56;100067.72;;;8.56;100.00
14818;BME280;7500;57.698;11.986;2023-02-18T01:18:24;100072.25;;;8.52;100.00
14818;BME280;7500;57.698;11.986;2023-02-18T01:20:52;100084.09;;;8.61;100.00
14818;BME280;7500;57.698;11.986;2023-02-18T01:23:20;100097.31;;;8.59;100.00
14818;BME280;7500;57.698;11.986;2023-02-18T01:25:47;100099.59;;;8.50;100.00
14818;BME280;7500;57.698;11.986;2023-02-18T01:28:15;100121.47;;;8.50;100.00
14818;BME280;7500;57.698;11.986;2023-02-18T01:30:42;100100.38;;;8.52;100.00
14818;BME280;7500;57.698;11.986;2023-02-18T01:33:10;100129.66;;;8.61;100.00
14818;BME280;7500;57.698;11.986;2023-02-18T01:35:37;100126.97;;;8.63;100.00
14818;BME280;7500;57.698;11.986;2023-02-18T01:38:06;100142.72;;;8.47;100.00
14818;BME280;7500;57.698;11.986;2023-02-18T01:40:33;100136.91;;;8.41;100.00
14818;BME280;7500;57.698;11.986;2023-02-18T01:43:01;100155.19;;;8.59;100.00
14818;BME280;7500;57.698;11.986;2023-02-18T01:45:51;100158.00;;;8.56;100.00
14818;BME280;7500;57.698;11.986;2023-02-18T01:48:21;100165.47;;;8.48;100.00
14818;BME280;7500;57.698;11.986;2023-02-18T01:50:53;100175.13;;;8.48;100.00
14818;BME280;7500;57.698;11.986;2023-02-18T01:53:28;100172.22;;;8.52;100.00
14818;BME280;7500;57.698;11.986;2023-02-18T01:55:57;100184.44;;;8.53;100.00
14818;BME280;7500;57.698;11.986;2023-02-18T01:58:25;100184.59;;;8.50;100.00
14818;BME280;7500;57.698;11.986;2023-02-18T02:00:52;100211.94;;;8.48;100.00
14818;BME280;7500;57.698;11.986;2023-02-18T02:03:18;100223.47;;;8.45;100.00
14818;BME280;7500;57.698;11.986;2023-02-18T02:05:45;100209.16;;;8.51;100.00
14818;BME280;7500;57.698;11.986;2023-02-18T02:08:12;100220.75;;;8.47;100.00
14818;BME280;7500;57.698;11.986;2023-02-18T02:10:53;100224.22;;;8.64;100.00
14818;BME280;7500;57.698;11.986;2023-02-18T02:13:27;100232.16;;;8.47;100.00
14818;BME280;7500;57.698;11.986;2023-02-18T02:16:01;100236.38;;;8.50;100.00
14818;BME280;7500;57.698;11.986;2023-02-18T02:18:44;100244.44;;;8.47;100.00
14818;BME280;7500;57.698;11.986;2023-02-18T02:21:38;100256.81;;;8.45;100.00
14818;BME280;7500;57.698;11.986;2023-02-18T02:27:14;100258.91;;;8.38;100.00
14818;BME280;7500;57.698;11.986;2023-02-18T02:30:02;100262.53;;;8.19;100.00
14818;BME280;7500;57.698;11.986;2023-02-18T02:35:40;100266.06;;;8.18;100.00
14818;BME280;7500;57.698;11.986;2023-02-18T02:38:16;100266.47;;;8.27;100.00
14818;BME280;7500;57.698;11.986;2023-02-18T02:40:48;100279.84;;;8.23;100.00
14818;BME280;7500;57.698;11.986;2023-02-18T02:43:21;100277.13;;;8.24;100.00
14818;BME280;7500;57.698;11.986;2023-02-18T02:46:02;100270.88;;;8.27;100.00
14818;BME280;7500;57.698;11.986;2023-02-18T02:48:36;100279.41;;;8.32;100.00
14818;BME280;7500;57.698;11.986;2023-02-18T02:51:10;100279.47;;;8.30;100.00
14818;BME280;7500;57.698;11.986;2023-02-18T02:53:40;100288.03;;;8.34;100.00
14818;BME280;7500;57.698;11.986;2023-02-18T02:56:12;100284.81;;;8.29;100.00
14818;BME280;7500;57.698;11.986;2023-02-18T02:58:40;100295.78;;;8.20;100.00
14818;BME280;7500;57.698;11.986;2023-02-18T03:01:17;100292.63;;;8.30;100.00
14818;BME280;7500;57.698;11.986;2023-02-18T03:04:21;100306.16;;;8.23;100.00
14818;BME280;7500;57.698;11.986;2023-02-18T03:07:13;100305.91;;;8.27;100.00
14818;BME280;7500;57.698;11.986;2023-02-18T03:09:55;100307.38;;;8.33;100.00
14818;BME280;7500;57.698;11.986;2023-02-18T03:12:34;100304.59;;;8.36;100.00
14818;BME280;7500;57.698;11.986;2023-02-18T03:15:05;100309.84;;;8.36;100.00
14818;BME280;7500;57.698;11.986;2023-02-18T03:17:36;100317.16;;;8.12;100.00
14818;BME280;7500;57.698;11.986;2023-02-18T03:20:11;100316.81;;;8.20;100.00
14818;BME280;7500;57.698;11.986;2023-02-18T03:22:44;100317.72;;;8.19;100.00
14818;BME280;7500;57.698;11.986;2023-02-18T03:25:14;100313.94;;;8.24;100.00
14818;BME280;7500;57.698;11.986;2023-02-18T03:27:44;100322.41;;;8.31;100.00
14818;BME280;7500;57.698;11.986;2023-02-18T03:30:19;100331.72;;;8.19;100.00
14818;BME280;7500;57.698;11.986;2023-02-18T03:32:48;100332.16;;;8.29;100.00
14818;BME280;7500;57.698;11.986;2023-02-18T03:35:18;100320.91;;;8.25;100.00
14818;BME280;7500;57.698;11.986;2023-02-18T03:37:51;100339.41;;;8.24;100.00
14818;BME280;7500;57.698;11.986;2023-02-18T03:40:22;100336.53;;;8.28;100.00
14818;BME280;7500;57.698;11.986;2023-02-18T03:42:49;100341.25;;;8.22;100.00
14818;BME280;7500;57.698;11.986;2023-02-18T03:45:16;100339.69;;;7.99;100.00
14818;BME280;7500;57.698;11.986;2023-02-18T03:47:44;100351.47;;;8.09;100.00
14818;BME280;7500;57.698;11.986;2023-02-18T03:50:11;100347.19;;;8.07;100.00
14818;BME280;7500;57.698;11.986;2023-02-18T03:52:37;100349.63;;;8.11;100.00
14818;BME280;7500;57.698;11.986;2023-02-18T03:55:06;100355.88;;;8.09;100.00
14818;BME280;7500;57.698;11.986;2023-02-18T03:57:34;100360.47;;;8.04;100.00
14818;BME280;7500;57.698;11.986;2023-02-18T04:00:02;100362.19;;;8.05;100.00
14818;BME280;7500;57.698;11.986;2023-02-18T04:02:30;100356.59;;;8.12;100.00
14818;BME280;7500;57.698;11.986;2023-02-18T04:04:57;100362.69;;;8.13;100.00
14818;BME280;7500;57.698;11.986;2023-02-18T04:07:24;100362.03;;;8.08;100.00
14818;BME280;7500;57.698;11.986;2023-02-18T04:09:51;100360.00;;;8.14;100.00
14818;BME280;7500;57.698;11.986;2023-02-18T04:12:19;100358.50;;;8.09;100.00
14818;BME280;7500;57.698;11.986;2023-02-18T04:14:46;100354.75;;;8.14;100.00
14818;BME280;7500;57.698;11.986;2023-02-18T04:17:13;100359.41;;;8.08;100.00
14818;BME280;7500;57.698;11.986;2023-02-18T04:19:40;100366.47;;;8.07;100.00
14818;BME280;7500;57.698;11.986;2023-02-18T04:22:07;100373.44;;;8.08;100.00
14818;BME280;7500;57.698;11.986;2023-02-18T04:24:34;100375.63;;;7.99;100.00
14818;BME280;7500;57.698;11.986;2023-02-18T04:27:01;100381.59;;;8.02;100.00
14818;BME280;7500;57.698;11.986;2023-02-18T04:29:29;100382.16;;;7.90;100.00
14818;BME280;7500;57.698;11.986;2023-02-18T04:31:56;100385.44;;;7.95;100.00
14818;BME280;7500;57.698;11.986;2023-02-18T04:34:23;100391.19;;;8.03;100.00
14818;BME280;7500;57.698;11.986;2023-02-18T04:36:50;100393.97;;;8.00;100.00
14818;BME280;7500;57.698;11.986;2023-02-18T04:39:16;100396.50;;;8.02;100.00
14818;BME280;7500;57.698;11.986;2023-02-18T04:41:43;100390.53;;;7.98;100.00
14818;BME280;7500;57.698;11.986;2023-02-18T04:44:10;100390.41;;;8.01;100.00
14818;BME280;7500;57.698;11.986;2023-02-18T04:46:38;100386.56;;;7.90;100.00
14818;BME280;7500;57.698;11.986;2023-02-18T04:49:05;100397.00;;;7.91;100.00
14818;BME280;7500;57.698;11.986;2023-02-18T04:51:32;100382.38;;;7.86;100.00
14818;BME280;7500;57.698;11.986;2023-02-18T04:53:59;100386.34;;;7.94;100.00
14818;BME280;7500;57.698;11.986;2023-02-18T04:56:26;100387.69;;;8.03;100.00
14818;BME280;7500;57.698;11.986;2023-02-18T04:58:53;100386.56;;;8.08;100.00
14818;BME280;7500;57.698;11.986;2023-02-18T05:01:20;100386.00;;;8.02;100.00
14818;BME280;7500;57.698;11.986;2023-02-18T05:03:48;100387.91;;;7.98;100.00
14818;BME280;7500;57.698;11.986;2023-02-18T05:06:15;100390.97;;;8.08;100.00
14818;BME280;7500;57.698;11.986;2023-02-18T05:08:41;100385.78;;;8.06;100.00
14818;BME280;7500;57.698;11.986;2023-02-18T05:11:08;100332.72;;;7.62;100.00
14818;BME280;7500;57.698;11.986;2023-02-18T05:13:35;100396.34;;;8.05;100.00
14818;BME280;7500;57.698;11.986;2023-02-18T05:16:02;100397.28;;;8.04;100.00
14818;BME280;7500;57.698;11.986;2023-02-18T05:18:30;100397.22;;;8.05;100.00
14818;BME280;7500;57.698;11.986;2023-02-18T05:20:58;100396.59;;;8.00;100.00
14818;BME280;7500;57.698;11.986;2023-02-18T05:23:25;100393.81;;;8.03;100.00
14818;BME280;7500;57.698;11.986;2023-02-18T05:25:53;100395.81;;;7.98;100.00
14818;BME280;7500;57.698;11.986;2023-02-18T05:28:19;100398.72;;;7.92;100.00
14818;BME280;7500;57.698;11.986;2023-02-18T05:30:46;100399.56;;;7.93;100.00
14818;BME280;7500;57.698;11.986;2023-02-18T05:33:13;100413.56;;;7.93;100.00
14818;BME280;7500;57.698;11.986;2023-02-18T05:35:40;100399.44;;;7.96;100.00
14818;BME280;7500;57.698;11.986;2023-02-18T05:38:08;100400.91;;;8.01;100.00
14818;BME280;7500;57.698;11.986;2023-02-18T05:40:35;100402.47;;;7.87;100.00
14818;BME280;7500;57.698;11.986;2023-02-18T05:43:02;100401.28;;;7.94;100.00
14818;BME280;7500;57.698;11.986;2023-02-18T05:45:29;100399.22;;;8.00;100.00
14818;BME280;7500;57.698;11.986;2023-02-18T05:47:56;100401.72;;;8.03;100.00
14818;BME280;7500;57.698;11.986;2023-02-18T05:50:23;100409.44;;;8.06;100.00
14818;BME280;7500;57.698;11.986;2023-02-18T05:52:50;100406.03;;;8.04;100.00
14818;BME280;7500;57.698;11.986;2023-02-18T05:55:18;100408.09;;;7.98;100.00
14818;BME280;7500;57.698;11.986;2023-02-18T05:57:45;100406.19;;;8.01;100.00
14818;BME280;7500;57.698;11.986;2023-02-18T06:00:13;100404.47;;;8.00;100.00
14818;BME280;7500;57.698;11.986;2023-02-18T06:02:40;100401.91;;;7.99;100.00
14818;BME280;7500;57.698;11.986;2023-02-18T06:05:07;100400.06;;;8.01;100.00
14818;BME280;7500;57.698;11.986;2023-02-18T06:07:34;100403.56;;;8.01;100.00
14818;BME280;7500;57.698;11.986;2023-02-18T06:10:01;100400.00;;;8.02;100.00
14818;BME280;7500;57.698;11.986;2023-02-18T06:12:30;100400.78;;;8.04;100.00
14818;BME280;7500;57.698;11.986;2023-02-18T06:14:57;100401.84;;;8.00;100.00
14818;BME280;7500;57.698;11.986;2023-02-18T06:17:23;100406.31;;;7.98;100.00
14818;BME280;7500;57.698;11.986;2023-02-18T06:19:50;100406.81;;;8.06;100.00
14818;BME280;7500;57.698;11.986;2023-02-18T06:22:17;100406.09;;;8.03;100.00
14818;BME280;7500;57.698;11.986;2023-02-18T06:24:44;100409.88;;;8.16;100.00
14818;BME280;7500;57.698;11.986;2023-02-18T06:27:11;100413.00;;;8.05;100.00
14818;BME280;7500;57.698;11.986;2023-02-18T06:29:39;100424.31;;;8.07;100.00
14818;BME280;7500;57.698;11.986;2023-02-18T06:32:06;100419.69;;;7.94;100.00
14818;BME280;7500;57.698;11.986;2023-02-18T06:34:33;100416.84;;;7.98;100.00
14818;BME280;7500;57.698;11.986;2023-02-18T06:37:00;100421.69;;;8.07;100.00
14818;BME280;7500;57.698;11.986;2023-02-18T06:39:29;100416.84;;;7.98;100.00
14818;BME280;7500;57.698;11.986;2023-02-18T06:41:55;100423.53;;;8.05;100.00
14818;BME280;7500;57.698;11.986;2023-02-18T06:44:22;100428.78;;;8.05;100.00
14818;BME280;7500;57.698;11.986;2023-02-18T06:46:51;100430.34;;;7.91;100.00
14818;BME280;7500;57.698;11.986;2023-02-18T06:49:18;100420.09;;;7.85;100.00
14818;BME280;7500;57.698;11.986;2023-02-18T06:51:46;100431.38;;;7.87;100.00
14818;BME280;7500;57.698;11.986;2023-02-18T06:54:13;100434.31;;;7.99;100.00
14818;BME280;7500;57.698;11.986;2023-02-18T06:56:39;100356.72;;;7.54;100.00
14818;BME280;7500;57.698;11.986;2023-02-18T06:59:06;100431.78;;;8.16;100.00
14818;BME280;7500;57.698;11.986;2023-02-18T07:01:33;100431.94;;;8.32;100.00
14818;BME280;7500;57.698;11.986;2023-02-18T07:04:02;100428.56;;;8.10;100.00
14818;BME280;7500;57.698;11.986;2023-02-18T07:06:29;100422.66;;;8.05;100.00
14818;BME280;7500;57.698;11.986;2023-02-18T07:08:55;100426.94;;;8.07;100.00
14818;BME280;7500;57.698;11.986;2023-02-18T07:11:22;100432.25;;;8.06;100.00
14818;BME280;7500;57.698;11.986;2023-02-18T07:13:49;100442.84;;;8.04;100.00
14818;BME280;7500;57.698;11.986;2023-02-18T07:16:16;100446.41;;;8.03;100.00
14818;BME280;7500;57.698;11.986;2023-02-18T07:18:43;100443.53;;;8.08;100.00
14818;BME280;7500;57.698;11.986;2023-02-18T07:21:11;100443.59;;;8.26;100.00
14818;BME280;7500;57.698;11.986;2023-02-18T07:23:38;100438.56;;;8.02;100.00
14818;BME280;7500;57.698;11.986;2023-02-18T07:26:07;100449.94;;;8.02;100.00
14818;BME280;7500;57.698;11.986;2023-02-18T07:28:35;100442.84;;;8.04;100.00
14818;BME280;7500;57.698;11.986;2023-02-18T07:31:02;100445.59;;;8.01;100.00
14818;BME280;7500;57.698;11.986;2023-02-18T07:33:29;100444.97;;;8.15;100.00
14818;BME280;7500;57.698;11.986;2023-02-18T07:35:57;100441.59;;;8.31;100.00
14818;BME280;7500;57.698;11.986;2023-02-18T07:38:26;100448.19;;;8.21;100.00
14818;BME280;7500;57.698;11.986;2023-02-18T07:40:55;100441.56;;;8.13;100.00
14818;BME280;7500;57.698;11.986;2023-02-18T07:43:22;100451.94;;;8.16;100.00
14818;BME280;7500;57.698;11.986;2023-02-18T07:45:49;100447.53;;;8.16;100.00
14818;BME280;7500;57.698;11.986;2023-02-18T07:48:16;100424.50;;;8.03;100.00
14818;BME280;7500;57.698;11.986;2023-02-18T07:50:44;100452.53;;;8.22;100.00
14818;BME280;7500;57.698;11.986;2023-02-18T07:53:12;100453.13;;;8.29;100.00
14818;BME280;7500;57.698;11.986;2023-02-18T07:55:41;100459.91;;;8.33;100.00
14818;BME280;7500;57.698;11.986;2023-02-18T07:58:19;100462.53;;;8.33;100.00
14818;BME280;7500;57.698;11.986;2023-02-18T08:00:47;100452.03;;;8.33;100.00
14818;BME280;7500;57.698;11.986;2023-02-18T08:03:15;100459.00;;;8.34;100.00
14818;BME280;7500;57.698;11.986;2023-02-18T08:05:42;100458.66;;;8.41;100.00
14818;BME280;7500;57.698;11.986;2023-02-18T08:08:14;100464.13;;;8.37;100.00
14818;BME280;7500;57.698;11.986;2023-02-18T08:10:43;100467.53;;;8.39;100.00
14818;BME280;7500;57.698;11.986;2023-02-18T08:13:10;100466.75;;;8.37;100.00
14818;BME280;7500;57.698;11.986;2023-02-18T08:15:37;100460.78;;;8.52;100.00
14818;BME280;7500;57.698;11.986;2023-02-18T08:18:05;100463.63;;;8.47;100.00
14818;BME280;7500;57.698;11.986;2023-02-18T08:20:35;100463.00;;;8.42;100.00
14818;BME280;7500;57.698;11.986;2023-02-18T08:23:03;100463.97;;;8.40;100.00
14818;BME280;7500;57.698;11.986;2023-02-18T08:25:31;100468.44;;;8.56;100.00
14818;BME280;7500;57.698;11.986;2023-02-18T08:27:59;100472.88;;;8.37;100.00
14818;BME280;7500;57.698;11.986;2023-02-18T08:30:26;100478.00;;;8.40;100.00
14818;BME280;7500;57.698;11.986;2023-02-18T08:32:53;100471.88;;;8.40;100.00
14818;BME280;7500;57.698;11.986;2023-02-18T08:35:20;100479.41;;;8.47;100.00
14818;BME280;7500;57.698;11.986;2023-02-18T08:37:47;100477.41;;;8.52;100.00
14818;BME280;7500;57.698;11.986;2023-02-18T08:40:14;100485.94;;;8.39;100.00
14818;BME280;7500;57.698;11.986;2023-02-18T08:42:41;100483.94;;;8.44;100.00
14818;BME280;7500;57.698;11.986;2023-02-18T08:45:10;100481.41;;;8.42;100.00
14818;BME280;7500;57.698;11.986;2023-02-18T08:47:37;100483.13;;;8.43;100.00
14818;BME280;7500;57.698;11.986;2023-02-18T08:50:04;100482.84;;;8.49;100.00
14818;BME280;7500;57.698;11.986;2023-02-18T08:52:31;100486.22;;;8.51;100.00
14818;BME280;7500;57.698;11.986;2023-02-18T08:54:58;100486.91;;;8.73;100.00
14818;BME280;7500;57.698;11.986;2023-02-18T08:57:27;100498.09;;;8.78;100.00
14818;BME280;7500;57.698;11.986;2023-02-18T08:59:53;100491.75;;;8.82;100.00
14818;BME280;7500;57.698;11.986;2023-02-18T09:02:22;100489.13;;;8.82;100.00
14818;BME280;7500;57.698;11.986;2023-02-18T09:04:49;100491.75;;;8.82;100.00
14818;BME280;7500;57.698;11.986;2023-02-18T09:07:17;100498.81;;;8.63;100.00
14818;BME280;7500;57.698;11.986;2023-02-18T09:09:44;100497.69;;;9.04;100.00
14818;BME280;7500;57.698;11.986;2023-02-18T09:12:11;100498.75;;;9.00;100.00
14818;BME280;7500;57.698;11.986;2023-02-18T09:14:37;100498.72;;;8.83;100.00
14818;BME280;7500;57.698;11.986;2023-02-18T09:17:05;100500.63;;;8.80;100.00
14818;BME280;7500;57.698;11.986;2023-02-18T09:19:33;100502.09;;;8.85;100.00
14818;BME280;7500;57.698;11.986;2023-02-18T09:22:00;100505.97;;;9.13;100.00
14818;BME280;7500;57.698;11.986;2023-02-18T09:24:27;100479.72;;;9.12;100.00
14818;BME280;7500;57.698;11.986;2023-02-18T09:26:54;100503.72;;;9.23;100.00
14818;BME280;7500;57.698;11.986;2023-02-18T09:29:21;100506.16;;;9.27;100.00
14818;BME280;7500;57.698;11.986;2023-02-18T09:31:48;100509.56;;;9.29;100.00
14818;BME280;7500;57.698;11.986;2023-02-18T09:34:15;100507.38;;;9.20;100.00
14818;BME280;7500;57.698;11.986;2023-02-18T09:36:43;100459.72;;;8.73;100.00
14818;BME280;7500;57.698;11.986;2023-02-18T09:39:10;100512.53;;;9.05;100.00
14818;BME280;7500;57.698;11.986;2023-02-18T09:41:40;100506.34;;;9.06;100.00
14818;BME280;7500;57.698;11.986;2023-02-18T09:44:13;100513.72;;;8.99;100.00
14818;BME280;7500;57.698;11.986;2023-02-18T09:46:47;100519.91;;;8.98;100.00
14818;BME280;7500;57.698;11.986;2023-02-18T09:49:20;100517.31;;;8.97;100.00
14818;BME280;7500;57.698;11.986;2023-02-18T09:51:50;100524.28;;;8.98;100.00
14818;BME280;7500;57.698;11.986;2023-02-18T09:54:19;100524.16;;;9.01;100.00
14818;BME280;7500;57.698;11.986;2023-02-18T09:56:47;100524.78;;;9.06;100.00
14818;BME280;7500;57.698;11.986;2023-02-18T09:59:17;100526.53;;;9.05;100.00
14818;BME280;7500;57.698;11.986;2023-02-18T10:01:46;100528.50;;;9.02;100.00
14818;BME280;7500;57.698;11.986;2023-02-18T10:04:19;100534.00;;;8.98;100.00
14818;BME280;7500;57.698;11.986;2023-02-18T10:06:51;100535.31;;;9.06;100.00
14818;BME280;7500;57.698;11.986;2023-02-18T10:09:20;100526.34;;;9.10;100.00
14818;BME280;7500;57.698;11.986;2023-02-18T10:11:51;100535.81;;;9.14;100.00
14818;BME280;7500;57.698;11.986;2023-02-18T10:14:18;100539.09;;;9.00;100.00
14818;BME280;7500;57.698;11.986;2023-02-18T10:16:46;100530.44;;;8.98;100.00
14818;BME280;7500;57.698;11.986;2023-02-18T10:19:21;100522.84;;;9.09;100.00
14818;BME280;7500;57.698;11.986;2023-02-18T10:21:51;100529.53;;;9.16;100.00
14818;BME280;7500;57.698;11.986;2023-02-18T10:24:26;100528.97;;;9.10;100.00
14818;BME280;7500;57.698;11.986;2023-02-18T10:26:55;100529.13;;;9.07;100.00
14818;BME280;7500;57.698;11.986;2023-02-18T10:29:22;100528.84;;;9.13;100.00
14818;BME280;7500;57.698;11.986;2023-02-18T10:31:54;100530.16;;;9.21;100.00
14818;BME280;7500;57.698;11.986;2023-02-18T10:34:34;100525.56;;;9.25;100.00
14818;BME280;7500;57.698;11.986;2023-02-18T10:37:18;100526.94;;;9.33;100.00
14818;BME280;7500;57.698;11.986;2023-02-18T10:39:59;100525.22;;;9.32;100.00
14818;BME280;7500;57.698;11.986;2023-02-18T10:42:35;100517.22;;;9.34;100.00
14818;BME280;7500;57.698;11.986;2023-02-18T10:45:14;100512.28;;;9.45;100.00
14818;BME280;7500;57.698;11.986;2023-02-18T10:47:51;100512.09;;;9.31;100.00
14818;BME280;7500;57.698;11.986;2023-02-18T10:50:27;100518.75;;;9.04;100.00
14818;BME280;7500;57.698;11.986;2023-02-18T10:53:01;100519.06;;;9.15;100.00
14818;BME280;7500;57.698;11.986;2023-02-18T10:55:37;100517.91;;;9.20;100.00
14818;BME280;7500;57.698;11.986;2023-02-18T10:58:23;100514.19;;;9.24;100.00
14818;BME280;7500;57.698;11.986;2023-02-18T11:00:51;100525.44;;;9.28;100.00
14818;BME280;7500;57.698;11.986;2023-02-18T11:03:20;100521.22;;;9.24;100.00
14818;BME280;7500;57.698;11.986;2023-02-18T11:05:50;100528.94;;;9.28;100.00
14818;BME280;7500;57.698;11.986;2023-02-18T11:08:22;100533.03;;;9.34;100.00
14818;BME280;7500;57.698;11.986;2023-02-18T11:10:50;100529.53;;;9.16;100.00
14818;BME280;7500;57.698;11.986;2023-02-18T11:13:24;100517.28;;;9.15;100.00
14818;BME280;7500;57.698;11.986;2023-02-18T11:15:58;100530.63;;;9.29;100.00
14818;BME280;7500;57.698;11.986;2023-02-18T11:18:36;100529.91;;;9.26;100.00
14818;BME280;7500;57.698;11.986;2023-02-18T11:21:09;100536.50;;;9.17;100.00
14818;BME280;7500;57.698;11.986;2023-02-18T11:23:48;100535.03;;;9.29;100.00
14818;BME280;7500;57.698;11.986;2023-02-18T11:26:16;100534.56;;;9.21;100.00
14818;BME280;7500;57.698;11.986;2023-02-18T11:28:48;100522.78;;;9.11;100.00
14818;BME280;7500;57.698;11.986;2023-02-18T11:31:19;100532.06;;;9.18;100.00
14818;BME280;7500;57.698;11.986;2023-02-18T11:33:51;100524.78;;;9.23;100.00
14818;BME280;7500;57.698;11.986;2023-02-18T11:36:24;100518.91;;;9.18;100.00
14818;BME280;7500;57.698;11.986;2023-02-18T11:38:56;100513.44;;;9.22;100.00
14818;BME280;7500;57.698;11.986;2023-02-18T11:41:34;100522.16;;;9.23;100.00
14818;BME280;7500;57.698;11.986;2023-02-18T11:44:02;100519.78;;;9.35;100.00
14818;BME280;7500;57.698;11.986;2023-02-18T11:46:30;100521.19;;;9.42;100.00
14818;BME280;7500;57.698;11.986;2023-02-18T11:49:10;100518.47;;;9.44;100.00
14818;BME280;7500;57.698;11.986;2023-02-18T11:51:47;100520.25;;;9.60;100.00
14818;BME280;7500;57.698;11.986;2023-02-18T11:54:24;100526.06;;;9.67;100.00
14818;BME280;7500;57.698;11.986;2023-02-18T11:56:56;100521.56;;;9.69;100.00
14818;BME280;7500;57.698;11.986;2023-02-18T11:59:24;100523.13;;;9.73;100.00
14818;BME280;7500;57.698;11.986;2023-02-18T12:01:55;100452.75;;;9.41;100.00
14818;BME280;7500;57.698;11.986;2023-02-18T12:04:27;100521.88;;;9.80;100.00
14818;BME280;7500;57.698;11.986;2023-02-18T12:07:05;100508.84;;;9.77;100.00
14818;BME280;7500;57.698;11.986;2023-02-18T12:09:41;100519.78;;;9.69;100.00
14818;BME280;7500;57.698;11.986;2023-02-18T12:12:13;100510.41;;;9.64;100.00
14818;BME280;7500;57.698;11.986;2023-02-18T12:14:42;100515.63;;;9.65;100.00
14818;BME280;7500;57.698;11.986;2023-02-18T12:17:24;100519.69;;;9.54;100.00
14818;BME280;7500;57.698;11.986;2023-02-18T12:23:04;100518.25;;;9.48;100.00
14818;BME280;7500;57.698;11.986;2023-02-18T12:25:40;100521.31;;;9.39;100.00
14818;BME280;7500;57.698;11.986;2023-02-18T12:28:27;100510.09;;;9.36;100.00
14818;BME280;7500;57.698;11.986;2023-02-18T12:31:21;100521.97;;;9.27;100.00
14818;BME280;7500;57.698;11.986;2023-02-18T12:34:01;100510.41;;;9.30;100.00
14818;BME280;7500;57.698;11.986;2023-02-18T12:36:46;100515.66;;;9.30;100.00
14818;BME280;7500;57.698;11.986;2023-02-18T12:39:25;100525.81;;;9.37;100.00
14818;BME280;7500;57.698;11.986;2023-02-18T12:42:09;100519.56;;;9.40;100.00
14818;BME280;7500;57.698;11.986;2023-02-18T12:44:43;100530.53;;;9.31;100.00
14818;BME280;7500;57.698;11.986;2023-02-18T12:47:29;100522.50;;;9.34;100.00
14818;BME280;7500;57.698;11.986;2023-02-18T12:50:13;100515.38;;;9.70;100.00
14818;BME280;7500;57.698;11.986;2023-02-18T12:52:53;100516.91;;;9.74;100.00
14818;BME280;7500;57.698;11.986;2023-02-18T12:55:36;100529.84;;;9.78;100.00
14818;BME280;7500;57.698;11.986;2023-02-18T12:58:18;100531.03;;;9.73;100.00
14818;BME280;7500;57.698;11.986;2023-02-18T13:01:02;100519.31;;;9.78;100.00
14818;BME280;7500;57.698;11.986;2023-02-18T13:04:00;100521.88;;;9.80;100.00
14818;BME280;7500;57.698;11.986;2023-02-18T13:06:57;100532.09;;;9.35;100.00
14818;BME280;7500;57.698;11.986;2023-02-18T13:09:37;100524.19;;;9.35;100.00
14818;BME280;7500;57.698;11.986;2023-02-18T13:12:08;100522.16;;;9.23;100.00
14818;BME280;7500;57.698;11.986;2023-02-18T13:14:43;100527.44;;;9.23;100.00
14818;BME280;7500;57.698;11.986;2023-02-18T13:17:14;100520.78;;;9.33;100.00